Aries Voyager — C6UK7 — position and weather

sailwx.info

Track history (hours):
 
Tides and Currents Weather Stations Pressure Air Temp Water Temp Dewpoint Dewpoint Depression Visibility Wind Speed Wind Dir Waves Ship Positions

Aries Voyager

Last reported at 2018-May-13 12:13 UTC. Time now 2018-May-21 22:48 UTC.
Position N 01°24' E 103°12'.
Warning: this ship's position is 8 days out of date.

Type: Tanker. MMSI: 311821000.

Date/timePositionNaut miles runAvg speedWind from/ knotsBaromVisibWave heightAir tempDewpointWater temp
2018-May-13 12:13N 01°24' E 103°12'414.6
2018-May-13 11:59N 01°22' E 103°15'714.1
2018-May-13 11:30N 01°18' E 103°20'814.9
2018-May-13 11:00N 01°14' E 103°26'815.3
2018-May-13 10:30N 01°12' E 103°34'611.5
2018-May-13 10:00N 01°11' E 103°39'510.8
2018-May-13 09:30N 01°09' E 103°44'714.2
2018-May-13 09:00N 01°12' E 103°51'5 9.9
2018-May-13 08:30N 01°15' E 103°55'0 0.1
2018-May-13 08:00N 01°15' E 103°55'0 0.0
2018-May-13 07:30N 01°15' E 103°55'0 0.1
2018-May-13 06:58N 01°15' E 103°55'0 0.0
2018-May-13 06:28N 01°15' E 103°55'0 0.0
2018-May-13 05:58N 01°15' E 103°55'0 0.2
2018-May-13 05:28N 01°15' E 103°55'0 0.1
2018-May-13 04:43N 01°15' E 103°55'0 0.2
2018-May-13 04:22N 01°15' E 103°55'0 0.0
2018-May-13 03:58N 01°15' E 103°55'0 0.1
2018-May-13 03:28N 01°15' E 103°55'0 0.0
2018-May-13 02:58N 01°15' E 103°55'0 0.1
2018-May-13 02:25N 01°15' E 103°55'0 0.1
2018-May-13 01:58N 01°15' E 103°54'0 0.0
2018-May-13 01:25N 01°15' E 103°54'0 0.2
2018-May-13 00:55N 01°15' E 103°54'0 0.0
2018-May-13 00:15N 01°15' E 103°54'0 0.1
2018-May-12 23:55N 01°15' E 103°54'0 0.1
2018-May-12 23:30N 01°15' E 103°54'0 0.1
2018-May-12 22:55N 01°15' E 103°54'0 0.0
2018-May-12 22:28N 01°15' E 103°54'0 0.2
2018-May-12 22:00N 01°15' E 103°54'0 0.2
2018-May-12 21:28N 01°15' E 103°54'0 0.2
2018-May-12 20:58N 01°15' E 103°55'0 0.1
2018-May-12 20:28N 01°15' E 103°55'0 0.0
2018-May-12 19:58N 01°15' E 103°55'0 0.0
2018-May-12 19:28N 01°15' E 103°55'0 0.0
2018-May-12 19:00N 01°15' E 103°55'0 0.0
2018-May-12 18:25N 01°15' E 103°55'0 0.1
2018-May-12 17:58N 01°15' E 103°55'0 0.1
2018-May-12 17:28N 01°15' E 103°55'0 0.1
2018-May-12 17:00N 01°15' E 103°55'0 0.0
2018-May-12 16:30N 01°15' E 103°55'0 0.1
2018-May-12 15:58N 01°15' E 103°54'0 0.0
2018-May-12 15:30N 01°15' E 103°54'0 0.1
2018-May-12 14:54N 01°15' E 103°54'0 0.1
2018-May-12 14:27N 01°15' E 103°54'0 0.1
2018-May-12 13:58N 01°15' E 103°54'0 0.0
2018-May-12 13:28N 01°15' E 103°54'0 0.1
2018-May-12 13:00N 01°15' E 103°54'0 0.1
2018-May-12 12:30N 01°15' E 103°54'0 0.1
2018-May-12 11:58N 01°15' E 103°54'0 0.2
2018-May-12 11:30N 01°15' E 103°54'0 0.1
2018-May-12 10:58N 01°15' E 103°54'0 0.2
2018-May-12 10:30N 01°15' E 103°54'0 0.2
2018-May-12 09:58N 01°15' E 103°54'0 0.2
2018-May-12 09:28N 01°15' E 103°54'0 0.1
2018-May-12 09:00N 01°15' E 103°54'0 0.1
2018-May-12 08:25N 01°15' E 103°54'0 0.0
2018-May-12 07:55N 01°15' E 103°54'0 0.3
2018-May-12 07:28N 01°15' E 103°55'0 0.1
2018-May-12 06:55N 01°15' E 103°55'0 0.0
2018-May-12 06:27N 01°15' E 103°55'0 0.1
2018-May-12 06:00N 01°15' E 103°55'0 0.0
2018-May-12 05:28N 01°15' E 103°55'0 0.0
2018-May-12 04:55N 01°15' E 103°55'0 0.0
2018-May-12 04:30N 01°15' E 103°55'0 0.1
2018-May-12 03:52N 01°15' E 103°54'0 0.2
2018-May-12 03:30N 01°15' E 103°54'0 0.0
2018-May-12 02:55N 01°15' E 103°54'0 0.0
2018-May-12 02:30N 01°15' E 103°54'0 0.0
2018-May-12 01:58N 01°15' E 103°54'0 0.2
2018-May-12 01:30N 01°15' E 103°54'0 0.2
2018-May-12 00:58N 01°15' E 103°54'0 0.1
2018-May-12 00:30N 01°15' E 103°54'0 0.2
2018-May-11 23:55N 01°15' E 103°54'1 1.3
2018-May-11 23:30N 01°14' E 103°55'3 6.6
2018-May-11 23:00N 01°15' E 103°58'611.1
2018-May-11 22:30N 01°16' E 104°03'815.1
2018-May-11 21:59N 01°17' E 104°11'5 9.9
2018-May-11 21:30N 01°18' E 104°16'4 8.5
2018-May-11 20:59N 01°19' E 104°20'611.5
2018-May-11 20:30N 01°23' E 104°24'5 9.5
2018-May-11 19:58N 01°26' E 104°28'5 8.9
2018-May-11 19:27N 01°29' E 104°32'611.0
2018-May-11 18:57N 01°34' E 104°34'1010.8
2018-May-11 17:59N 01°44' E 104°37'14 8.9
2018-May-11 16:27N 01°57' E 104°39'  
2018-May-06 15:29N 24°20' E 122°37'713.8
2018-May-06 15:00N 24°27' E 122°38'713.2
2018-May-06 14:30N 24°33' E 122°38'813.5
2018-May-06 13:57N 24°41' E 122°39'62812.9
2018-May-04 13:18N 35°03' E 124°22'18013.5
2018-May-03 23:57N 37°56' E 123°20'4 9.4
2018-May-03 23:29N 37°59' E 123°16'510.5
2018-May-03 23:00N 38°01' E 123°10'5 9.8
2018-May-03 22:30N 38°04' E 123°04'511.0
2018-May-03 22:00N 38°07' E 122°59'611.5
2018-May-03 21:30N 38°11' E 122°53'611.9
2018-May-03 21:00N 38°13' E 122°47'612.2
2018-May-03 20:30N 38°16' E 122°39'612.3
2018-May-03 20:00N 38°16' E 122°32'612.1
2018-May-03 19:30N 38°17' E 122°24'612.2
2018-May-03 19:00N 38°18' E 122°16'612.1
2018-May-03 18:30N 38°19' E 122°09'611.9
2018-May-03 18:00N 38°20' E 122°01'611.8
2018-May-03 17:30N 38°20' E 121°54'611.7
2018-May-03 17:00N 38°21' E 121°46'611.5
2018-May-03 16:27N 38°24' E 121°39'511.6
2018-May-03 16:00N 38°24' E 121°32'611.8
2018-May-03 15:30N 38°25' E 121°25'611.8
2018-May-03 14:59N 38°26' E 121°17'811.9
2018-May-03 14:19N 38°28' E 121°07'412.3
2018-May-03 14:00N 38°30' E 121°03'2012.1
2018-May-03 12:21N 38°34' E 120°38'  
Track history (hours):
 
Tides and Currents Weather Stations Pressure Air Temp Water Temp Dewpoint Dewpoint Depression Visibility Wind Speed Wind Dir Waves Ship Positions

Aries Voyager

Last reported at 2018-May-13 12:13 UTC. Time now 2018-May-21 22:48 UTC.
Position N 01°24' E 103°12'.
Warning: this ship's position is 8 days out of date.

Type: Tanker. MMSI: 311821000.

Date/timePositionNaut miles runAvg speedWind from/ knotsBaromVisibWave heightAir tempDewpointWater temp
2018-May-13 12:13N 01°24' E 103°12'414.6
2018-May-13 11:59N 01°22' E 103°15'714.1
2018-May-13 11:30N 01°18' E 103°20'814.9
2018-May-13 11:00N 01°14' E 103°26'815.3
2018-May-13 10:30N 01°12' E 103°34'611.5
2018-May-13 10:00N 01°11' E 103°39'510.8
2018-May-13 09:30N 01°09' E 103°44'714.2
2018-May-13 09:00N 01°12' E 103°51'5 9.9
2018-May-13 08:30N 01°15' E 103°55'0 0.1
2018-May-13 08:00N 01°15' E 103°55'0 0.0
2018-May-13 07:30N 01°15' E 103°55'0 0.1
2018-May-13 06:58N 01°15' E 103°55'0 0.0
2018-May-13 06:28N 01°15' E 103°55'0 0.0
2018-May-13 05:58N 01°15' E 103°55'0 0.2
2018-May-13 05:28N 01°15' E 103°55'0 0.1
2018-May-13 04:43N 01°15' E 103°55'0 0.2
2018-May-13 04:22N 01°15' E 103°55'0 0.0
2018-May-13 03:58N 01°15' E 103°55'0 0.1
2018-May-13 03:28N 01°15' E 103°55'0 0.0
2018-May-13 02:58N 01°15' E 103°55'0 0.1
2018-May-13 02:25N 01°15' E 103°55'0 0.1
2018-May-13 01:58N 01°15' E 103°54'0 0.0
2018-May-13 01:25N 01°15' E 103°54'0 0.2
2018-May-13 00:55N 01°15' E 103°54'0 0.0
2018-May-13 00:15N 01°15' E 103°54'0 0.1
2018-May-12 23:55N 01°15' E 103°54'0 0.1
2018-May-12 23:30N 01°15' E 103°54'0 0.1
2018-May-12 22:55N 01°15' E 103°54'0 0.0
2018-May-12 22:28N 01°15' E 103°54'0 0.2
2018-May-12 22:00N 01°15' E 103°54'0 0.2
2018-May-12 21:28N 01°15' E 103°54'0 0.2
2018-May-12 20:58N 01°15' E 103°55'0 0.1
2018-May-12 20:28N 01°15' E 103°55'0 0.0
2018-May-12 19:58N 01°15' E 103°55'0 0.0
2018-May-12 19:28N 01°15' E 103°55'0 0.0
2018-May-12 19:00N 01°15' E 103°55'0 0.0
2018-May-12 18:25N 01°15' E 103°55'0 0.1
2018-May-12 17:58N 01°15' E 103°55'0 0.1
2018-May-12 17:28N 01°15' E 103°55'0 0.1
2018-May-12 17:00N 01°15' E 103°55'0 0.0
2018-May-12 16:30N 01°15' E 103°55'0 0.1
2018-May-12 15:58N 01°15' E 103°54'0 0.0
2018-May-12 15:30N 01°15' E 103°54'0 0.1
2018-May-12 14:54N 01°15' E 103°54'0 0.1
2018-May-12 14:27N 01°15' E 103°54'0 0.1
2018-May-12 13:58N 01°15' E 103°54'0 0.0
2018-May-12 13:28N 01°15' E 103°54'0 0.1
2018-May-12 13:00N 01°15' E 103°54'0 0.1
2018-May-12 12:30N 01°15' E 103°54'0 0.1
2018-May-12 11:58N 01°15' E 103°54'0 0.2
2018-May-12 11:30N 01°15' E 103°54'0 0.1
2018-May-12 10:58N 01°15' E 103°54'0 0.2
2018-May-12 10:30N 01°15' E 103°54'0 0.2
2018-May-12 09:58N 01°15' E 103°54'0 0.2
2018-May-12 09:28N 01°15' E 103°54'0 0.1
2018-May-12 09:00N 01°15' E 103°54'0 0.1
2018-May-12 08:25N 01°15' E 103°54'0 0.0
2018-May-12 07:55N 01°15' E 103°54'0 0.3
2018-May-12 07:28N 01°15' E 103°55'0 0.1
2018-May-12 06:55N 01°15' E 103°55'0 0.0
2018-May-12 06:27N 01°15' E 103°55'0 0.1
2018-May-12 06:00N 01°15' E 103°55'0 0.0
2018-May-12 05:28N 01°15' E 103°55'0 0.0
2018-May-12 04:55N 01°15' E 103°55'0 0.0
2018-May-12 04:30N 01°15' E 103°55'0 0.1
2018-May-12 03:52N 01°15' E 103°54'0 0.2
2018-May-12 03:30N 01°15' E 103°54'0 0.0
2018-May-12 02:55N 01°15' E 103°54'0 0.0
2018-May-12 02:30N 01°15' E 103°54'0 0.0
2018-May-12 01:58N 01°15' E 103°54'0 0.2
2018-May-12 01:30N 01°15' E 103°54'0 0.2
2018-May-12 00:58N 01°15' E 103°54'0 0.1
2018-May-12 00:30N 01°15' E 103°54'0 0.2
2018-May-11 23:55N 01°15' E 103°54'1 1.3
2018-May-11 23:30N 01°14' E 103°55'3 6.6
2018-May-11 23:00N 01°15' E 103°58'611.1
2018-May-11 22:30N 01°16' E 104°03'815.1
2018-May-11 21:59N 01°17' E 104°11'5 9.9
2018-May-11 21:30N 01°18' E 104°16'4 8.5
2018-May-11 20:59N 01°19' E 104°20'611.5
2018-May-11 20:30N 01°23' E 104°24'5 9.5
2018-May-11 19:58N 01°26' E 104°28'5 8.9
2018-May-11 19:27N 01°29' E 104°32'611.0
2018-May-11 18:57N 01°34' E 104°34'1010.8
2018-May-11 17:59N 01°44' E 104°37'14 8.9
2018-May-11 16:27N 01°57' E 104°39'  
2018-May-06 15:29N 24°20' E 122°37'713.8
2018-May-06 15:00N 24°27' E 122°38'713.2
2018-May-06 14:30N 24°33' E 122°38'813.5
2018-May-06 13:57N 24°41' E 122°39'62812.9
2018-May-04 13:18N 35°03' E 124°22'18013.5
2018-May-03 23:57N 37°56' E 123°20'4 9.4
2018-May-03 23:29N 37°59' E 123°16'510.5
2018-May-03 23:00N 38°01' E 123°10'5 9.8
2018-May-03 22:30N 38°04' E 123°04'511.0
2018-May-03 22:00N 38°07' E 122°59'611.5
2018-May-03 21:30N 38°11' E 122°53'611.9
2018-May-03 21:00N 38°13' E 122°47'612.2
2018-May-03 20:30N 38°16' E 122°39'612.3
2018-May-03 20:00N 38°16' E 122°32'612.1
2018-May-03 19:30N 38°17' E 122°24'612.2
2018-May-03 19:00N 38°18' E 122°16'612.1
2018-May-03 18:30N 38°19' E 122°09'611.9
2018-May-03 18:00N 38°20' E 122°01'611.8
2018-May-03 17:30N 38°20' E 121°54'611.7
2018-May-03 17:00N 38°21' E 121°46'611.5
2018-May-03 16:27N 38°24' E 121°39'511.6
2018-May-03 16:00N 38°24' E 121°32'611.8
2018-May-03 15:30N 38°25' E 121°25'611.8
2018-May-03 14:59N 38°26' E 121°17'811.9
2018-May-03 14:19N 38°28' E 121°07'412.3
2018-May-03 14:00N 38°30' E 121°03'2012.1
2018-May-03 12:21N 38°34' E 120°38'  

Dump ship's entire track history